Time;durP1;ratioP1;P1;durP2;ratioP2;P2;SDS_P1;SDS_P2;PMS_P1;PMS_P2;Temp;Humidity;BMP_temperature;BMP_pressure;BME280_temperature;BME280_humidity;BME280_pressure;Samples;Min_cycle;Max_cycle;Signal;HPM_P1;HPM_P2
2022/07/18 00:02:15;;;;;;;2.78;2.58;;;13.70;99.90;;;;;;6075720;23;20021;-79
2022/07/18 00:04:45;;;;;;;2.08;1.90;;;13.60;99.90;;;;;;6066562;23;20022;-79
2022/07/18 00:07:13;;;;;;;4.65;2.38;;;13.60;99.90;;;;;;6096967;23;20034;-79
2022/07/18 00:09:41;;;;;;;2.10;2.00;;;13.60;99.90;;;;;;6070862;23;20026;-79
2022/07/18 00:12:10;;;;;;;2.20;1.95;;;13.60;99.90;;;;;;6067916;23;20023;-79
2022/07/18 00:14:38;;;;;;;3.20;2.33;;;13.40;99.90;;;;;;6097288;23;20026;-80
2022/07/18 00:17:07;;;;;;;2.83;2.55;;;13.30;99.90;;;;;;6101846;23;20015;-79
2022/07/18 00:19:36;;;;;;;4.20;2.58;;;13.30;99.90;;;;;;6093434;23;20030;-79
2022/07/18 00:22:05;;;;;;;2.05;1.92;;;13.30;99.90;;;;;;6101395;23;20022;-79
2022/07/18 00:24:32;;;;;;;2.35;2.20;;;13.40;99.90;;;;;;6102051;23;20018;-79
2022/07/18 00:27:00;;;;;;;1.77;1.67;;;13.50;99.90;;;;;;6097610;23;20033;-79
2022/07/18 00:29:28;;;;;;;12.25;5.10;;;13.60;99.90;;;;;;6099697;23;20041;-79
2022/07/18 00:31:56;;;;;;;3.28;2.20;;;13.60;99.90;;;;;;6092456;23;20029;-79
2022/07/18 00:34:24;;;;;;;3.88;2.88;;;13.60;99.90;;;;;;6104309;23;20018;-79
2022/07/18 00:36:52;;;;;;;2.17;2.08;;;13.50;99.90;;;;;;6095302;23;20025;-79
2022/07/18 00:39:19;;;;;;;3.17;2.72;;;13.40;99.90;;;;;;6094867;23;20037;-79
2022/07/18 00:41:48;;;;;;;2.13;2.03;;;13.40;99.90;;;;;;6130889;23;20014;-79
2022/07/18 00:44:22;;;;;;;5.30;2.95;;;13.30;99.90;;;;;;6121386;23;20025;-79
2022/07/18 00:46:54;;;;;;;2.33;2.15;;;13.30;99.90;;;;;;6125981;23;20026;-79
2022/07/18 00:49:22;;;;;;;3.47;2.63;;;13.20;99.90;;;;;;6105177;23;20013;-80
2022/07/18 00:51:50;;;;;;;11.52;4.53;;;13.20;99.90;;;;;;6122876;23;20026;-79
2022/07/18 00:54:18;;;;;;;2.85;2.65;;;13.30;99.90;;;;;;6095309;23;20022;-79
2022/07/18 00:56:48;;;;;;;2.63;2.42;;;13.30;99.90;;;;;;6094819;23;20033;-79
2022/07/18 00:59:17;;;;;;;4.63;2.30;;;13.40;99.90;;;;;;6070230;23;20033;-84
2022/07/18 01:01:47;;;;;;;3.17;2.83;;;13.40;99.90;;;;;;6129774;23;20021;-78
2022/07/18 01:04:18;;;;;;;2.63;2.42;;;13.20;99.90;;;;;;6119823;23;20353;-78
2022/07/18 01:06:47;;;;;;;2.40;2.25;;;13.10;99.90;;;;;;6068116;23;20026;-79
2022/07/18 01:09:20;;;;;;;2.88;2.67;;;12.90;99.90;;;;;;6124331;23;20367;-78
2022/07/18 01:12:13;;;;;;;3.03;2.78;;;12.90;99.90;;;;;;6118914;23;20034;-78
2022/07/18 01:14:41;;;;;;;3.10;2.80;;;12.90;99.90;;;;;;6126126;23;20025;-78
2022/07/18 01:17:17;;;;;;;3.05;2.75;;;13.00;99.90;;;;;;6129283;23;20013;-78
2022/07/18 01:19:46;;;;;;;2.50;2.20;;;13.00;99.90;;;;;;6121823;23;20033;-79
2022/07/18 01:22:16;;;;;;;2.92;2.72;;;13.10;99.90;;;;;;6128681;23;20442;-79
2022/07/18 01:24:44;;;;;;;6.05;3.10;;;13.00;99.90;;;;;;6094196;23;20022;-78
2022/07/18 01:27:17;;;;;;;2.92;2.72;;;12.90;99.90;;;;;;6125646;23;20026;-78
2022/07/18 01:29:50;;;;;;;2.97;2.72;;;12.80;99.90;;;;;;6130165;23;20319;-78
2022/07/18 01:32:19;;;;;;;2.33;2.10;;;12.70;99.90;;;;;;6120446;23;20026;-78
2022/07/18 01:34:48;;;;;;;2.53;2.33;;;12.60;99.90;;;;;;6101028;23;20025;-78
2022/07/18 01:37:16;;;;;;;6.07;3.10;;;12.60;99.90;;;;;;6128712;23;20021;-78
2022/07/18 01:39:46;;;;;;;2.45;2.25;;;12.60;99.90;;;;;;6119624;23;20041;-78
2022/07/18 01:42:16;;;;;;;2.92;2.72;;;12.70;99.90;;;;;;6103088;23;20021;-78
2022/07/18 01:44:44;;;;;;;4.53;2.97;;;12.80;99.90;;;;;;6130384;23;20072;-78
2022/07/18 01:47:12;;;;;;;3.70;2.40;;;12.70;99.90;;;;;;6094276;23;20390;-78
2022/07/18 01:49:40;;;;;;;3.28;2.97;;;12.50;99.90;;;;;;6094551;23;20025;-78
2022/07/18 01:52:09;;;;;;;2.55;2.35;;;12.40;99.90;;;;;;6121382;23;20107;-78
2022/07/18 01:54:37;;;;;;;3.75;3.50;;;12.40;99.90;;;;;;6127152;23;20033;-78
2022/07/18 01:57:06;;;;;;;3.47;3.17;;;12.40;99.90;;;;;;6129755;23;20025;-78
2022/07/18 01:59:37;;;;;;;3.45;3.15;;;12.40;99.90;;;;;;6093722;23;20029;-79
2022/07/18 02:02:05;;;;;;;4.10;2.75;;;12.40;99.90;;;;;;6129698;23;20014;-78
2022/07/18 02:07:22;;;;;;;3.20;2.90;;;12.50;99.90;;;;;;6098105;23;20560;-79
2022/07/18 02:09:50;;;;;;;3.25;2.95;;;12.50;99.90;;;;;;6096708;23;20074;-78
2022/07/18 02:12:18;;;;;;;3.45;3.17;;;12.50;99.90;;;;;;6119214;23;20026;-78
2022/07/18 02:14:47;;;;;;;2.88;2.63;;;12.50;99.90;;;;;;6128462;23;20025;-78
2022/07/18 02:17:15;;;;;;;5.55;3.08;;;12.40;99.90;;;;;;6104800;23;20025;-78
2022/07/18 02:19:43;;;;;;;3.50;2.60;;;12.40;99.90;;;;;;6094306;23;20021;-78
2022/07/18 02:22:11;;;;;;;4.28;3.72;;;12.40;99.90;;;;;;6103571;23;20014;-78
2022/07/18 02:24:39;;;;;;;3.38;2.92;;;12.40;99.90;;;;;;6104267;23;20018;-79
2022/07/18 02:27:06;;;;;;;3.35;3.15;;;12.30;99.90;;;;;;6100477;23;20026;-78
2022/07/18 02:29:34;;;;;;;3.17;2.88;;;12.30;99.90;;;;;;6128868;23;20021;-78
2022/07/18 02:32:02;;;;;;;4.38;4.03;;;12.20;99.90;;;;;;6096466;23;20536;-78
2022/07/18 02:34:30;;;;;;;3.92;3.00;;;12.10;99.90;;;;;;6102293;23;20030;-78
2022/07/18 02:36:58;;;;;;;10.05;3.75;;;12.00;99.90;;;;;;6095447;23;20472;-78
2022/07/18 02:39:26;;;;;;;2.97;2.78;;;12.10;99.90;;;;;;6098077;23;20524;-78
2022/07/18 02:41:54;;;;;;;2.95;2.67;;;12.20;99.90;;;;;;6130690;23;20026;-79
2022/07/18 02:44:22;;;;;;;3.58;3.28;;;12.30;99.90;;;;;;6070229;23;20026;-78
2022/07/18 02:46:50;;;;;;;3.00;2.85;;;12.30;99.90;;;;;;6094765;23;20022;-78
2022/07/18 02:49:26;;;;;;;3.40;3.10;;;12.00;99.90;;;;;;6104645;23;20014;-78
2022/07/18 02:51:55;;;;;;;3.05;2.78;;;11.70;99.90;;;;;;6096500;23;20026;-78
2022/07/18 02:54:24;;;;;;;4.07;3.67;;;11.70;99.90;;;;;;6128923;23;20453;-78
2022/07/18 02:56:52;;;;;;;4.38;3.22;;;11.70;99.90;;;;;;6105078;23;20472;-78
2022/07/18 02:59:25;;;;;;;3.15;2.92;;;11.70;99.90;;;;;;6095206;23;20022;-78
2022/07/18 03:01:54;;;;;;;3.65;3.35;;;11.70;99.90;;;;;;6131259;23;20021;-78
2022/07/18 03:04:22;;;;;;;3.10;2.90;;;11.80;99.90;;;;;;6096235;23;20025;-78
2022/07/18 03:06:51;;;;;;;4.93;3.47;;;11.80;99.90;;;;;;6094944;23;20018;-78
2022/07/18 03:09:19;;;;;;;5.10;3.00;;;11.90;99.90;;;;;;6101417;23;20018;-78
2022/07/18 03:11:47;;;;;;;4.00;3.60;;;11.80;99.90;;;;;;6070770;23;20029;-78
2022/07/18 03:14:15;;;;;;;3.97;3.20;;;11.80;99.90;;;;;;6103975;23;20063;-78
2022/07/18 03:16:48;;;;;;;3.15;2.92;;;11.80;99.90;;;;;;6095583;23;20022;-78
2022/07/18 03:19:24;;;;;;;3.72;3.42;;;11.80;99.90;;;;;;6099284;23;20030;-78
2022/07/18 03:21:52;;;;;;;4.05;3.75;;;11.80;99.90;;;;;;6131752;23;20025;-78
2022/07/18 03:24:19;;;;;;;6.13;3.60;;;11.80;99.90;;;;;;6122055;23;20030;-78
2022/07/18 03:26:47;;;;;;;3.85;3.50;;;11.60;99.90;;;;;;6095115;23;20022;-78
2022/07/18 03:29:15;;;;;;;5.72;5.13;;;11.40;99.90;;;;;;6131730;23;20312;-78
2022/07/18 03:31:43;;;;;;;5.32;3.65;;;11.30;99.90;;;;;;6098924;23;20056;-79
2022/07/18 03:34:11;;;;;;;3.30;3.08;;;11.20;99.90;;;;;;6095601;23;20026;-79
2022/07/18 03:36:38;;;;;;;4.57;3.40;;;11.30;99.90;;;;;;6131743;23;20013;-79
2022/07/18 03:39:07;;;;;;;4.38;3.97;;;11.30;99.90;;;;;;6126533;23;20029;-79
2022/07/18 03:41:36;;;;;;;3.80;3.58;;;11.40;99.90;;;;;;6131289;23;20025;-79
2022/07/18 03:44:05;;;;;;;3.95;3.65;;;11.40;99.90;;;;;;6097209;23;20057;-79
2022/07/18 03:46:33;;;;;;;3.33;3.03;;;11.30;99.90;;;;;;6095177;23;20022;-79
2022/07/18 03:49:02;;;;;;;3.22;3.03;;;11.30;99.90;;;;;;6131897;23;20018;-80
2022/07/18 03:51:30;;;;;;;7.07;3.05;;;11.30;99.90;;;;;;6099491;23;20034;-79
2022/07/18 03:53:57;;;;;;;5.07;3.50;;;11.40;99.90;;;;;;6131440;23;20025;-79
2022/07/18 03:56:25;;;;;;;3.38;3.08;;;11.50;99.90;;;;;;6120787;23;20034;-79
2022/07/18 03:59:25;;;;;;;3.30;3.00;;;11.40;99.90;;;;;;6101760;23;20026;-79
2022/07/18 04:01:53;;;;;;;3.47;3.17;;;11.20;99.90;;;;;;6131479;23;20014;-79
2022/07/18 04:04:21;;;;;;;3.85;3.47;;;11.20;99.90;;;;;;6121650;23;20033;-79
2022/07/18 04:06:49;;;;;;;4.10;3.35;;;11.20;99.90;;;;;;6127386;23;20354;-79
2022/07/18 04:09:16;;;;;;;4.82;4.32;;;11.30;99.90;;;;;;6095299;23;20033;-79
2022/07/18 04:11:44;;;;;;;3.65;3.35;;;11.40;99.90;;;;;;6097356;23;20486;-79
2022/07/18 04:14:12;;;;;;;3.75;3.45;;;11.50;99.90;;;;;;6130169;23;20022;-79
2022/07/18 04:16:39;;;;;;;3.60;3.20;;;11.50;99.90;;;;;;6131064;23;20014;-79
2022/07/18 04:19:07;;;;;;;3.95;3.10;;;11.60;99.90;;;;;;6126149;23;20022;-79
2022/07/18 04:21:35;;;;;;;4.38;3.97;;;11.50;99.90;;;;;;6131320;23;20185;-79
2022/07/18 04:24:03;;;;;;;3.63;3.33;;;11.40;99.90;;;;;;6122918;23;20026;-79
2022/07/18 04:26:31;;;;;;;3.47;3.17;;;11.40;99.90;;;;;;6126950;23;20017;-79
2022/07/18 04:29:31;;;;;;;4.97;3.85;;;11.40;99.90;;;;;;6131099;23;20465;-79
2022/07/18 04:31:59;;;;;;;4.35;3.70;;;11.50;99.90;;;;;;6093008;23;20473;-79
2022/07/18 04:34:27;;;;;;;5.18;3.67;;;11.60;99.90;;;;;;6094725;23;20143;-79
2022/07/18 04:36:54;;;;;;;4.70;4.35;;;11.70;99.90;;;;;;6130783;23;20014;-80
2022/07/18 04:39:22;;;;;;;5.55;5.05;;;11.80;99.90;;;;;;6124713;23;20029;-79
2022/07/18 04:41:49;;;;;;;4.20;3.90;;;11.90;99.90;;;;;;6104849;23;20017;-79
2022/07/18 04:44:17;;;;;;;5.85;4.40;;;12.00;99.90;;;;;;6119080;23;20025;-79
2022/07/18 04:46:45;;;;;;;4.57;4.20;;;12.20;99.90;;;;;;6126544;23;20022;-79
2022/07/18 04:49:13;;;;;;;4.68;3.88;;;12.20;99.90;;;;;;6129892;23;20033;-79
2022/07/18 04:51:40;;;;;;;4.75;4.30;;;12.40;99.90;;;;;;6097041;23;20029;-79
2022/07/18 04:54:08;;;;;;;3.58;3.28;;;12.50;99.90;;;;;;6129366;23;20022;-80
2022/07/18 04:56:36;;;;;;;4.32;3.90;;;;;;;;;;6103888;23;20057;-80
2022/07/18 04:59:04;;;;;;;5.78;4.95;;;;;;;;;;6093545;23;20028;-79
2022/07/18 05:01:32;;;;;;;5.00;4.55;;;;;;;;;;6104195;23;20013;-79
2022/07/18 05:04:00;;;;;;;4.47;4.13;;;;;;;;;;6121501;23;20040;-78
2022/07/18 05:06:28;;;;;;;4.90;4.50;;;;;;;;;;6127106;23;20033;-79
2022/07/18 05:08:58;;;;;;;5.00;4.40;;;;;;;;;;6126754;23;20354;-78
2022/07/18 05:11:26;;;;;;;3.97;3.67;;;;;;;;;;6123823;23;20025;-80
2022/07/18 05:13:54;;;;;;;6.38;5.40;;;;;;;;;;6105328;23;20660;-79
2022/07/18 05:16:22;;;;;;;5.07;4.57;;;;;;;;;;6120280;23;20037;-79
2022/07/18 05:18:50;;;;;;;7.00;6.43;;;;;;;;;;6124585;23;20488;-85
2022/07/18 05:21:19;;;;;;;6.25;5.75;;;;;;;;;;6128516;23;20018;-78
2022/07/18 05:23:50;;;;;;;4.53;4.15;;;;;;;;;;6120908;23;20037;-77
2022/07/18 05:26:26;;;;;;;6.20;5.25;;;;;;;;;;6127122;23;20025;-78
2022/07/18 05:29:12;;;;;;;7.63;5.28;;;;;;;;;;6125496;23;20796;-82
2022/07/18 05:31:41;;;;;;;5.18;4.68;;;;;;;;;;6094042;23;20036;-79
2022/07/18 05:34:09;;;;;;;6.30;4.70;;;;;;;;;;6129129;23;20014;-81
2022/07/18 05:36:37;;;;;;;6.07;4.97;;;;;;;;;;6130497;23;20402;-82
2022/07/18 05:39:05;;;;;;;5.38;4.90;;;;;;;;;;6124724;23;20385;-84
2022/07/18 05:41:33;;;;;;;5.60;4.65;;;;;;;;;;6131971;23;20509;-83
2022/07/18 05:44:06;;;;;;;10.68;6.25;;;;;;;;;;6106438;23;20853;-83
2022/07/18 05:46:34;;;;;;;7.97;7.18;;;;;;;;;;6118425;23;20045;-83
2022/07/18 05:49:04;;;;;;;5.60;4.78;;;;;;;;;;6128526;23;20033;-83
2022/07/18 05:51:35;;;;;;;4.88;4.35;;;;;;;;;;6100094;23;20029;-84
2022/07/18 05:54:03;;;;;;;4.65;4.25;;;;;;;;;;6098197;23;20032;-82
2022/07/18 05:56:32;;;;;;;5.13;4.72;;;;;;;;;;6106242;23;20018;-82
2022/07/18 05:59:00;;;;;;;6.25;4.32;;;;;;;;;;6100953;23;20032;-83
2022/07/18 06:01:28;;;;;;;4.60;4.20;;;;;;;;;;6096862;23;20321;-82
2022/07/18 06:03:57;;;;;;;7.35;4.55;;;;;;;;;;6124221;23;20026;-83
2022/07/18 06:06:25;;;;;;;10.70;7.32;;;;;;;;;;6130029;23;20030;-82
2022/07/18 06:08:53;;;;;;;4.78;4.38;;;;;;;;;;6130127;23;20037;-82
2022/07/18 06:11:21;;;;;;;4.15;3.85;;;16.90;99.90;;;;;;6125713;23;20026;-83
2022/07/18 06:13:49;;;;;;;5.55;4.35;;;16.90;99.90;;;;;;6132679;23;20041;-83
2022/07/18 06:16:17;;;;;;;5.28;4.15;;;17.10;99.90;;;;;;6097197;23;20045;-83
2022/07/18 06:18:45;;;;;;;4.75;4.38;;;17.20;99.90;;;;;;6102449;23;20026;-83
2022/07/18 06:21:13;;;;;;;8.80;4.28;;;17.40;99.90;;;;;;6132395;23;20023;-82
2022/07/18 06:23:41;;;;;;;5.10;4.70;;;17.50;99.90;;;;;;6125489;23;20022;-83
2022/07/18 06:26:09;;;;;;;4.25;3.85;;;17.70;99.90;;;;;;6131035;23;20452;-82
2022/07/18 06:28:39;;;;;;;7.60;3.90;;;17.80;99.90;;;;;;6106048;23;20486;-83
2022/07/18 06:31:17;;;;;;;3.65;3.28;;;18.00;99.90;;;;;;6126319;23;20488;-83
2022/07/18 06:33:45;;;;;;;4.63;3.42;;;18.10;99.90;;;;;;6096544;23;20033;-83
2022/07/18 06:36:13;;;;;;;4.13;3.45;;;18.20;99.90;;;;;;6122667;23;20037;-83
2022/07/18 06:38:42;;;;;;;3.55;3.35;;;18.40;99.90;;;;;;6127977;23;20523;-82
2022/07/18 06:41:10;;;;;;;7.13;4.45;;;18.50;99.90;;;;;;6129921;23;20025;-83
2022/07/18 06:43:38;;;;;;;4.63;4.25;;;18.60;99.90;;;;;;6124960;23;20034;-85
2022/07/18 06:46:26;;;;;;;5.70;4.30;;;18.70;99.90;;;;;;6133042;23;20018;-87
2022/07/18 07:15:46;;;;;;;5.00;3.70;;;19.30;99.90;;;;;;6060346;23;20014;-87
2022/07/18 07:19:10;;;;;;;4.00;3.70;;;19.50;99.90;;;;;;5902993;24;20095;-86
2022/07/18 07:22:14;;;;;;;9.52;4.13;;;19.70;99.90;;;;;;5896535;24;20032;-85
2022/07/18 07:25:16;;;;;;;3.33;3.13;;;19.90;99.90;;;;;;5972268;23;20334;-86
2022/07/18 07:28:31;;;;;;;4.82;3.83;;;20.10;99.90;;;;;;6012634;23;20525;-86
2022/07/18 07:31:20;;;;;;;5.38;3.30;;;20.20;99.90;;;;;;6036238;23;20447;-87
2022/07/18 07:34:17;;;;;;;3.75;3.08;;;20.50;99.90;;;;;;6005260;23;20049;-86
2022/07/18 07:37:03;;;;;;;6.47;4.25;;;20.70;99.90;;;;;;5938031;23;20031;-87
2022/07/18 07:39:34;;;;;;;3.88;3.08;;;20.80;99.90;;;;;;6026528;23;20063;-85
2022/07/18 07:46:52;;;;;;;5.07;3.30;;;20.80;99.90;;;;;;6096589;23;20018;-86
2022/07/18 07:49:52;;;;;;;4.45;2.58;;;21.20;99.90;;;;;;5979766;23;20023;-86
2022/07/18 07:52:27;;;;;;;3.35;3.05;;;21.40;99.90;;;;;;5943269;24;20032;-85
2022/07/18 08:09:44;;;;;;;6.15;2.83;;;22.40;99.90;;;;;;5981372;23;20341;-82
2022/07/18 08:12:12;;;;;;;3.38;2.75;;;22.60;99.90;;;;;;6031115;23;20044;-83
2022/07/18 08:14:41;;;;;;;2.08;1.98;;;22.80;99.90;;;;;;6097540;23;20030;-80
2022/07/18 08:17:10;;;;;;;3.13;2.75;;;22.90;99.90;;;;;;6129662;23;20014;-81
2022/07/18 08:19:38;;;;;;;17.65;2.33;;;23.00;99.90;;;;;;6122867;23;20030;-82
2022/07/18 08:22:06;;;;;;;2.42;2.17;;;23.00;99.90;;;;;;6129349;23;20021;-82
2022/07/18 08:24:33;;;;;;;3.80;2.75;;;23.10;99.50;;;;;;6129334;23;20014;-81
2022/07/18 08:27:01;;;;;;;2.53;2.40;;;23.30;99.90;;;;;;6092881;23;20465;-81
2022/07/18 08:30:05;;;;;;;2.72;2.50;;;23.40;99.90;;;;;;6128812;23;20018;-81
2022/07/18 08:32:35;;;;;;;3.03;2.38;;;23.40;99.90;;;;;;6117845;23;20026;-82
2022/07/18 08:35:03;;;;;;;6.93;2.95;;;23.50;99.90;;;;;;6124527;23;20018;-82
2022/07/18 08:37:31;;;;;;;3.97;1.92;;;23.50;99.90;;;;;;6126488;23;20018;-81
2022/07/18 08:39:59;;;;;;;2.05;1.92;;;23.60;97.90;;;;;;6116412;23;20052;-82
2022/07/18 08:42:28;;;;;;;3.25;3.05;;;23.40;99.30;;;;;;6111655;23;20485;-82
2022/07/18 08:44:56;;;;;;;2.45;2.13;;;23.60;99.90;;;;;;6128859;23;20026;-82
2022/07/18 08:47:43;;;;;;;2.58;2.38;;;23.80;99.90;;;;;;6124204;23;20476;-84
2022/07/18 08:50:13;;;;;;;3.38;3.17;;;23.80;99.90;;;;;;6129199;23;20014;-82
2022/07/18 08:52:42;;;;;;;2.50;2.30;;;23.80;99.90;;;;;;6130226;23;20334;-82
2022/07/18 08:55:21;;;;;;;4.47;2.45;;;23.90;99.80;;;;;;6122395;23;20029;-81
2022/07/18 08:58:04;;;;;;;2.58;2.38;;;23.90;99.40;;;;;;6129936;23;20018;-82
2022/07/18 09:00:51;;;;;;;2.47;2.30;;;24.00;99.40;;;;;;6105513;23;20056;-83
2022/07/18 09:03:19;;;;;;;10.27;4.43;;;24.00;99.90;;;;;;6078860;23;20038;-83
2022/07/18 09:06:03;;;;;;;3.60;2.47;;;24.10;99.90;;;;;;6038544;23;20030;-83
2022/07/18 09:08:31;;;;;;;8.65;2.55;;;24.10;99.00;;;;;;6056804;23;20038;-82
2022/07/18 09:11:02;;;;;;;12.15;2.65;;;24.30;98.50;;;;;;6064367;23;20027;-82
2022/07/18 09:13:33;;;;;;;1.65;1.55;;;24.30;98.80;;;;;;6069876;23;20049;-82
2022/07/18 09:16:02;;;;;;;;;;;24.30;96.20;;;;;;6061768;23;20047;-83
2022/07/18 09:18:44;;;;;;;4.65;2.58;;;24.40;94.90;;;;;;6067129;23;19921;-82
2022/07/18 09:21:18;;;;;;;2.25;2.15;;;24.50;95.60;;;;;;6061709;23;20027;-83
2022/07/18 09:23:51;;;;;;;1.40;1.30;;;24.30;94.70;;;;;;6061831;23;20035;-82
2022/07/18 09:26:39;;;;;;;2.63;2.40;;;24.30;95.70;;;;;;6067097;23;20027;-82
2022/07/18 09:29:16;;;;;;;12.35;2.33;;;24.30;95.50;;;;;;6093582;23;20642;-81
2022/07/18 09:31:55;;;;;;;1.83;1.70;;;24.30;95.20;;;;;;6122332;23;20026;-86
2022/07/18 09:34:35;;;;;;;1.33;1.23;;;24.40;92.20;;;;;;6128741;23;20465;-83
2022/07/18 09:37:03;;;;;;;2.35;1.48;;;24.40;91.60;;;;;;6104157;23;20397;-82
2022/07/18 09:39:33;;;;;;;1.73;1.60;;;24.50;90.50;;;;;;6093899;23;20034;-80
2022/07/18 09:42:15;;;;;;;7.18;2.13;;;24.50;89.80;;;;;;6127992;23;20029;-81
2022/07/18 09:44:58;;;;;;;1.95;1.85;;;24.60;89.70;;;;;;6125805;23;20025;-81
2022/07/18 09:47:26;;;;;;;1.90;1.80;;;24.70;91.90;;;;;;6122507;23;20026;-81
2022/07/18 09:49:54;;;;;;;4.05;3.13;;;24.80;89.50;;;;;;6126994;23;20014;-80
2022/07/18 09:52:23;;;;;;;2.28;1.35;;;24.90;92.80;;;;;;6118054;23;20045;-81
2022/07/18 09:55:02;;;;;;;1.70;1.60;;;25.00;90.50;;;;;;6123619;23;20145;-82
2022/07/18 09:57:30;;;;;;;1.35;1.25;;;24.90;89.80;;;;;;6127437;23;20025;-80
2022/07/18 09:59:59;;;;;;;3.13;2.00;;;24.90;91.00;;;;;;6118565;23;20477;-80
2022/07/18 10:02:28;;;;;;;1.75;1.65;;;25.00;93.20;;;;;;6124934;23;20030;-79
2022/07/18 10:04:57;;;;;;;1.67;1.58;;;25.10;90.60;;;;;;6117804;23;20217;-79
2022/07/18 10:07:25;;;;;;;1.58;1.45;;;25.10;92.50;;;;;;6117001;23;20029;-79
2022/07/18 10:09:53;;;;;;;2.40;1.52;;;25.10;91.70;;;;;;6125816;23;20437;-80
2022/07/18 10:12:21;;;;;;;1.67;1.58;;;25.00;90.60;;;;;;6116963;23;20029;-80
2022/07/18 10:14:50;;;;;;;1.50;1.40;;;25.10;90.30;;;;;;6123749;23;20788;-80
2022/07/18 10:17:20;;;;;;;2.38;2.17;;;25.20;90.60;;;;;;6127128;23;20014;-82
2022/07/18 10:19:48;;;;;;;1.90;1.23;;;25.30;84.10;;;;;;6118842;23;20033;-80
2022/07/18 10:22:16;;;;;;;1.85;1.75;;;25.30;88.20;;;;;;6127347;23;20014;-82
2022/07/18 10:24:44;;;;;;;2.00;1.48;;;25.30;91.10;;;;;;6128517;23;20021;-81
2022/07/18 10:27:18;;;;;;;2.22;1.80;;;25.40;87.10;;;;;;6121401;23;20666;-82
2022/07/18 10:30:11;;;;;;;1.67;1.58;;;25.40;84.20;;;;;;6128515;23;20014;-82
2022/07/18 10:32:40;;;;;;;3.35;1.70;;;25.20;85.90;;;;;;6101117;23;20084;-82
2022/07/18 10:35:12;;;;;;;2.65;1.23;;;25.20;86.00;;;;;;6092794;23;20765;-81
2022/07/18 10:37:40;;;;;;;2.40;1.70;;;25.30;84.70;;;;;;6105995;23;20303;-82
2022/07/18 10:40:29;;;;;;;5.05;1.52;;;25.40;84.20;;;;;;6095004;23;20034;-84
2022/07/18 10:43:31;;;;;;;3.35;1.55;;;25.30;87.00;;;;;;6119345;23;20028;-83
2022/07/18 10:46:08;;;;;;;3.05;1.75;;;25.40;87.30;;;;;;6120027;23;20021;-90
2022/07/18 10:48:40;;;;;;;1.60;1.50;;;25.60;88.90;;;;;;6078501;23;20029;-85
2022/07/18 10:51:17;;;;;;;9.80;2.45;;;25.60;81.00;;;;;;6125343;23;20315;-83
2022/07/18 10:54:01;;;;;;;2.13;1.92;;;25.50;86.20;;;;;;6122234;23;20018;-87
2022/07/18 10:56:35;;;;;;;2.20;2.00;;;25.70;91.60;;;;;;6120176;23;20026;-88
2022/07/18 10:59:21;;;;;;;1.48;1.38;;;25.90;80.40;;;;;;6100594;23;20021;-90
2022/07/18 11:01:58;;;;;;;1.70;1.60;;;26.00;85.50;;;;;;6105715;23;20014;-87
2022/07/18 11:04:33;;;;;;;1.20;1.15;;;26.00;86.50;;;;;;6119833;23;20025;-88
2022/07/18 11:07:13;;;;;;;3.47;1.88;;;26.00;88.50;;;;;;6121031;23;20029;-85
2022/07/18 11:09:56;;;;;;;6.63;1.48;;;25.90;85.00;;;;;;6104759;23;20016;-90
2022/07/18 11:12:53;;;;;;;1.63;1.48;;;25.90;84.50;;;;;;6094619;23;20052;-87
2022/07/18 11:15:24;;;;;;;1.70;1.50;;;25.80;85.00;;;;;;6124565;23;20442;-86
2022/07/18 11:18:30;;;;;;;2.33;1.42;;;25.70;88.80;;;;;;6130083;23;20014;-88
2022/07/18 11:21:27;;;;;;;1.77;1.67;;;25.60;83.00;;;;;;6095756;23;20872;-86
2022/07/18 11:24:09;;;;;;;7.68;1.70;;;25.50;83.40;;;;;;6098725;23;20026;-87
2022/07/18 11:26:47;;;;;;;1.65;1.42;;;25.60;87.00;;;;;;6080766;23;20030;-86
2022/07/18 11:29:22;;;;;;;2.83;1.77;;;25.80;86.40;;;;;;6129223;23;20025;-85
2022/07/18 11:31:53;;;;;;;2.60;1.92;;;25.90;89.90;;;;;;6096877;23;20033;-82
2022/07/18 11:34:23;;;;;;;3.42;1.83;;;26.00;82.80;;;;;;6127416;23;20493;-80
2022/07/18 11:37:07;;;;;;;1.80;1.52;;;25.90;86.70;;;;;;6130703;23;20014;-82
2022/07/18 11:39:35;;;;;;;1.67;1.58;;;25.90;86.00;;;;;;6122774;23;20026;-83
2022/07/18 11:42:04;;;;;;;1.50;1.40;;;25.90;87.30;;;;;;6129187;23;20791;-83
2022/07/18 11:44:33;;;;;;;4.00;1.95;;;25.90;89.00;;;;;;6130558;23;20449;-84
2022/07/18 11:47:16;;;;;;;7.13;1.77;;;25.90;85.40;;;;;;6093225;23;20026;-86
2022/07/18 11:49:58;;;;;;;2.72;1.38;;;26.00;85.20;;;;;;6106205;23;20025;-84
2022/07/18 11:52:26;;;;;;;3.00;1.52;;;26.00;85.60;;;;;;6118798;23;20398;-83
2022/07/18 11:55:03;;;;;;;2.15;1.70;;;25.90;86.50;;;;;;6093766;23;20029;-83
2022/07/18 11:57:38;;;;;;;1.23;1.23;;;26.00;88.40;;;;;;6094313;23;20465;-81
2022/07/18 12:00:20;;;;;;;1.90;1.80;;;26.00;85.80;;;;;;6120134;23;20034;-82
2022/07/18 12:02:47;;;;;;;5.28;2.47;;;26.10;85.50;;;;;;6094287;23;20033;-83
2022/07/18 12:05:15;;;;;;;2.20;2.00;;;26.20;87.60;;;;;;6128115;23;20014;-83
2022/07/18 12:07:45;;;;;;;1.85;1.73;;;26.30;85.00;;;;;;6123154;23;20027;-84
2022/07/18 12:10:16;;;;;;;1.55;1.45;;;26.30;85.80;;;;;;6092532;23;20022;-83
2022/07/18 12:12:46;;;;;;;1.40;1.30;;;26.20;85.30;;;;;;6094674;23;20029;-83
2022/07/18 12:15:14;;;;;;;1.57;1.47;;;26.30;81.70;;;;;;6123465;23;20018;-83
2022/07/18 12:17:47;;;;;;;3.40;1.20;;;26.30;81.10;;;;;;6104206;23;20326;-85
2022/07/18 12:20:19;;;;;;;1.02;1.00;;;26.30;80.20;;;;;;6118844;23;20038;-82
2022/07/18 12:23:08;;;;;;;5.85;1.55;;;26.30;79.00;;;;;;6093560;23;20037;-82
2022/07/18 12:25:56;;;;;;;1.40;1.30;;;26.30;81.40;;;;;;6102874;23;20402;-84
2022/07/18 12:28:28;;;;;;;8.40;2.33;;;26.40;80.60;;;;;;6092624;23;20038;-86
2022/07/18 12:30:56;;;;;;;2.13;1.63;;;26.30;83.00;;;;;;6099730;23;20037;-82
2022/07/18 12:33:28;;;;;;;2.03;1.80;;;26.30;83.10;;;;;;6129674;23;20018;-86
2022/07/18 12:35:58;;;;;;;2.90;1.85;;;26.30;81.70;;;;;;6121049;23;20026;-81
2022/07/18 12:38:26;;;;;;;2.03;1.38;;;26.30;83.60;;;;;;6125362;23;20614;-80
2022/07/18 12:41:01;;;;;;;2.15;1.38;;;26.40;85.10;;;;;;6093078;23;20018;-82
2022/07/18 12:43:38;;;;;;;1.38;1.27;;;26.50;80.60;;;;;;6124714;23;20022;-84
2022/07/18 12:46:09;;;;;;;2.08;1.63;;;26.60;86.30;;;;;;6130220;23;20013;-84
2022/07/18 12:48:37;;;;;;;3.22;1.60;;;26.70;81.40;;;;;;6130075;23;20014;-79
2022/07/18 12:51:10;;;;;;;1.70;1.60;;;26.70;82.90;;;;;;6125481;23;20029;-82
2022/07/18 12:53:42;;;;;;;3.67;1.48;;;26.60;82.40;;;;;;6071335;23;20025;-82
2022/07/18 12:56:11;;;;;;;2.95;1.70;;;26.60;82.40;;;;;;6106366;23;20030;-85
2022/07/18 12:58:50;;;;;;;6.85;1.80;;;26.60;79.30;;;;;;6094211;23;20017;-85
2022/07/18 13:01:22;;;;;;;1.55;1.30;;;26.60;80.10;;;;;;6131834;23;20010;-83
2022/07/18 13:03:50;;;;;;;1.30;1.20;;;26.60;79.00;;;;;;6095372;23;20026;-82
2022/07/18 13:06:18;;;;;;;1.77;1.58;;;26.70;79.20;;;;;;6129694;23;20017;-81
2022/07/18 13:08:47;;;;;;;1.77;1.35;;;26.80;83.40;;;;;;6095717;23;20349;-84
2022/07/18 13:11:15;;;;;;;1.20;1.10;;;26.80;80.80;;;;;;6124046;23;20036;-81
2022/07/18 13:13:42;;;;;;;8.68;1.90;;;26.90;80.40;;;;;;6128932;23;20230;-80
2022/07/18 13:16:11;;;;;;;2.75;1.50;;;27.10;86.00;;;;;;6068933;23;20045;-81
2022/07/18 13:18:39;;;;;;;1.77;1.40;;;27.30;81.80;;;;;;6126123;23;20697;-80
2022/07/18 13:21:06;;;;;;;1.88;1.48;;;27.40;84.80;;;;;;6128869;23;20017;-80
2022/07/18 13:23:34;;;;;;;2.85;1.65;;;27.50;83.30;;;;;;6121509;23;20034;-80
2022/07/18 13:26:02;;;;;;;1.15;1.15;;;27.60;81.60;;;;;;6127833;23;20018;-80
2022/07/18 13:28:36;;;;;;;2.70;1.27;;;27.60;77.10;;;;;;6116937;23;20030;-79
2022/07/18 13:31:04;;;;;;;1.95;1.30;;;27.50;79.40;;;;;;6091694;23;20033;-80
2022/07/18 13:33:32;;;;;;;2.72;1.55;;;27.50;79.80;;;;;;6092791;23;20018;-82
2022/07/18 13:35:59;;;;;;;0.82;0.82;;;27.40;79.10;;;;;;6118355;23;20022;-81
2022/07/18 13:38:27;;;;;;;1.40;1.17;;;27.20;77.60;;;;;;6126165;23;20026;-81
2022/07/18 13:40:55;;;;;;;1.25;1.02;;;27.20;75.30;;;;;;6128703;23;20018;-80
2022/07/18 13:43:23;;;;;;;1.23;1.00;;;27.00;80.00;;;;;;6122489;23;20062;-80
2022/07/18 13:45:51;;;;;;;1.63;1.40;;;27.20;77.90;;;;;;6127865;23;20075;-79
2022/07/18 13:48:19;;;;;;;3.67;1.35;;;27.40;81.90;;;;;;6117627;23;20025;-79
2022/07/18 13:50:46;;;;;;;3.30;1.65;;;27.40;78.20;;;;;;6123485;23;20478;-79
2022/07/18 13:53:14;;;;;;;3.70;1.75;;;27.40;72.50;;;;;;6127065;23;20030;-79
2022/07/18 13:55:42;;;;;;;3.80;2.10;;;27.50;73.10;;;;;;6092647;23;20037;-79
2022/07/18 13:58:10;;;;;;;2.13;1.98;;;27.50;79.90;;;;;;6099755;23;20018;-80
2022/07/18 14:00:38;;;;;;;1.92;1.83;;;27.50;79.40;;;;;;6102166;23;20014;-80
2022/07/18 14:03:07;;;;;;;1.27;1.17;;;27.50;76.20;;;;;;6091635;23;20026;-80
2022/07/18 14:05:36;;;;;;;1.63;1.52;;;27.50;75.80;;;;;;6127453;23;20025;-80
2022/07/18 14:08:05;;;;;;;2.85;1.63;;;27.40;75.10;;;;;;6118243;23;20037;-80
2022/07/18 14:10:34;;;;;;;1.30;1.10;;;27.30;77.50;;;;;;6100140;23;20028;-80